PWSweather.com
Personal Weather Stations
Station Observations
IPOMMEUS2
PommeuseFR 77515

PommeuseFR 77515

Lat: 48.805, Lon: 3.015

Elevation: 0

Station Type: Oregon Scientific WMRS200

http://meteo.glou-prods.net/

High Low Average
Temperature 64.0°F17.8°C 49.6°F9.8°C 56.4°F13.6°C
Dew Point 57.2°F14.0°C 49.1°F9.5°C 53.1°F11.7°C
Winds 3.8 mph 6.1 kmh 0.2 mph 0.3 kmh 1.0 mph SW1.6 kmh SW
Wind Gusts 13.2 mph21.2 kmh -- 3.0 mph4.8 kmh
Humidity 98% 64% 89%
Pressure 29.71 in1006.1 mb 29.39 in995.3 mb -
Precipitation 0.04 in1.0 mm - -
Hour Temp Dew Point Humidity Winds Wind Gusts Pressure Precip Precip Rate Daily Precip Total
12:00 AM 51.1°F10.6°C 50.2°F10.1°C 97% 2.0 mph NNW3.2 kmh NNW 4.3 mph6.9 kmh 29.71 in1006.1 mb 0.00 in0.0 mm 0.00 in/hr0.0 mm/hr 0.00 in0.0 mm
12:10 AM 51.1°F10.6°C 50.5°F10.3°C 98% 2.9 mph NNW4.7 kmh NNW 5.6 mph9.0 kmh 29.67 in1004.7 mb 0.00 in0.0 mm 0.00 in/hr0.0 mm/hr 0.00 in0.0 mm
12:20 AM 51.1°F10.6°C 50.5°F10.3°C 98% 2.0 mph NNW3.2 kmh NNW 3.8 mph6.1 kmh 29.65 in1004.1 mb 0.00 in0.0 mm 0.00 in/hr0.0 mm/hr 0.00 in0.0 mm
12:30 AM 51.1°F10.6°C 50.5°F10.3°C 98% 2.0 mph NNW3.2 kmh NNW 5.4 mph8.7 kmh 29.65 in1004.1 mb 0.00 in0.0 mm 0.00 in/hr0.0 mm/hr 0.04 in1.0 mm
12:40 AM 51.1°F10.6°C 50.5°F10.3°C 98% 0.7 mph W1.1 kmh W 2.2 mph3.5 kmh 29.66 in1004.4 mb 0.00 in0.0 mm 0.00 in/hr0.0 mm/hr 0.04 in1.0 mm
12:50 AM 51.3°F10.7°C 50.7°F10.4°C 98% 1.3 mph N2.1 kmh N 3.1 mph5.0 kmh 29.68 in1005.1 mb 0.00 in0.0 mm 0.00 in/hr0.0 mm/hr 0.04 in1.0 mm
01:00 AM 51.3°F10.7°C 50.7°F10.4°C 98% 2.5 mph N4.0 kmh N 5.8 mph9.3 kmh 29.68 in1005.1 mb 0.00 in0.0 mm 0.00 in/hr0.0 mm/hr 0.04 in1.0 mm
01:10 AM 51.3°F10.7°C 50.7°F10.4°C 98% 2.2 mph N3.5 kmh N 3.4 mph5.5 kmh 29.68 in1005.1 mb 0.00 in0.0 mm 0.00 in/hr0.0 mm/hr 0.04 in1.0 mm
01:20 AM 51.3°F10.7°C 50.7°F10.4°C 98% 2.9 mph N4.7 kmh N 5.4 mph8.7 kmh 29.67 in1004.7 mb 0.00 in0.0 mm 0.00 in/hr0.0 mm/hr 0.04 in1.0 mm
01:30 AM 51.3°F10.7°C 50.7°F10.4°C 98% 1.8 mph NW2.9 kmh NW 3.6 mph5.8 kmh 29.65 in1004.1 mb 0.00 in0.0 mm 0.00 in/hr0.0 mm/hr 0.04 in1.0 mm
01:40 AM 51.3°F10.7°C 50.7°F10.4°C 98% 2.0 mph NW3.2 kmh NW 4.9 mph7.9 kmh 29.65 in1004.1 mb 0.00 in0.0 mm 0.00 in/hr0.0 mm/hr 0.04 in1.0 mm
01:50 AM 51.6°F10.9°C 51.1°F10.6°C 98% 0.9 mph NW1.4 kmh NW 3.8 mph6.1 kmh 29.65 in1004.1 mb 0.00 in0.0 mm 0.00 in/hr0.0 mm/hr 0.04 in1.0 mm
02:00 AM 51.4°F10.8°C 50.9°F10.5°C 98% 0.7 mph WNW1.1 kmh WNW 2.7 mph4.3 kmh 29.68 in1005.1 mb 0.00 in0.0 mm 0.00 in/hr0.0 mm/hr 0.04 in1.0 mm
02:10 AM 51.4°F10.8°C 50.9°F10.5°C 98% 0.7 mph NW1.1 kmh NW 2.5 mph4.0 kmh 29.66 in1004.4 mb 0.00 in0.0 mm 0.00 in/hr0.0 mm/hr 0.04 in1.0 mm
02:20 AM 51.6°F10.9°C 51.1°F10.6°C 98% 2.0 mph NW3.2 kmh NW 3.8 mph6.1 kmh 29.65 in1004.1 mb 0.00 in0.0 mm 0.00 in/hr0.0 mm/hr 0.04 in1.0 mm
02:30 AM 51.6°F10.9°C 51.1°F10.6°C 98% 1.8 mph NW2.9 kmh NW 3.1 mph5.0 kmh 29.62 in1003.0 mb 0.00 in0.0 mm 0.00 in/hr0.0 mm/hr 0.04 in1.0 mm
02:40 AM 51.6°F10.9°C 51.1°F10.6°C 98% 1.8 mph NW2.9 kmh NW 4.7 mph7.6 kmh 29.62 in1003.0 mb 0.00 in0.0 mm 0.00 in/hr0.0 mm/hr 0.04 in1.0 mm
02:50 AM 51.8°F11.0°C 51.3°F10.7°C 98% 1.6 mph NW2.6 kmh NW 2.9 mph4.7 kmh 29.62 in1003.0 mb 0.00 in0.0 mm 0.00 in/hr0.0 mm/hr 0.04 in1.0 mm
03:00 AM 51.8°F11.0°C 51.3°F10.7°C 98% 0.2 mph N0.3 kmh N 2.0 mph3.2 kmh 29.65 in1004.1 mb 0.00 in0.0 mm 0.00 in/hr0.0 mm/hr 0.04 in1.0 mm
03:10 AM 51.6°F10.9°C 51.1°F10.6°C 98% 0.2 mph N0.3 kmh N 3.1 mph5.0 kmh 29.63 in1003.4 mb 0.00 in0.0 mm 0.00 in/hr0.0 mm/hr 0.04 in1.0 mm
03:20 AM 51.6°F10.9°C 51.1°F10.6°C 98% 1.3 mph NW2.1 kmh NW 3.4 mph5.5 kmh 29.62 in1003.0 mb 0.00 in0.0 mm 0.00 in/hr0.0 mm/hr 0.04 in1.0 mm
03:30 AM 51.6°F10.9°C 51.1°F10.6°C 98% 1.6 mph NW2.6 kmh NW 2.7 mph4.3 kmh 29.59 in1002.0 mb 0.00 in0.0 mm 0.00 in/hr0.0 mm/hr 0.04 in1.0 mm
03:40 AM 51.4°F10.8°C 50.9°F10.5°C 98% 0.4 mph W0.6 kmh W 3.6 mph5.8 kmh 29.60 in1002.4 mb 0.00 in0.0 mm 0.00 in/hr0.0 mm/hr 0.04 in1.0 mm
03:50 AM 51.4°F10.8°C 50.9°F10.5°C 98% 0.7 mph NW1.1 kmh NW 3.4 mph5.5 kmh 29.62 in1003.0 mb 0.00 in0.0 mm 0.00 in/hr0.0 mm/hr 0.04 in1.0 mm
04:00 AM 51.3°F10.7°C 50.7°F10.4°C 98% 0.4 mph WNW0.6 kmh WNW 2.0 mph3.2 kmh 29.62 in1003.0 mb 0.00 in0.0 mm 0.00 in/hr0.0 mm/hr 0.04 in1.0 mm
04:10 AM 51.3°F10.7°C 50.7°F10.4°C 98% 0.7 mph NW1.1 kmh NW 2.9 mph4.7 kmh 29.62 in1003.0 mb 0.00 in0.0 mm 0.00 in/hr0.0 mm/hr 0.04 in1.0 mm
04:20 AM 51.1°F10.6°C 50.5°F10.3°C 98% - E16091.8 kmh E -- 29.62 in1003.0 mb 0.00 in0.0 mm 0.00 in/hr0.0 mm/hr 0.04 in1.0 mm
04:30 AM 50.9°F10.5°C 50.4°F10.2°C 98% - E16091.8 kmh E -- 29.59 in1002.0 mb 0.00 in0.0 mm 0.00 in/hr0.0 mm/hr 0.04 in1.0 mm
04:40 AM 50.5°F10.3°C 50.0°F10.0°C 98% - SW16091.8 kmh SW 1.6 mph2.6 kmh 29.59 in1002.0 mb 0.00 in0.0 mm 0.00 in/hr0.0 mm/hr 0.04 in1.0 mm
04:50 AM 50.5°F10.3°C 50.0°F10.0°C 98% 0.2 mph WSW0.3 kmh WSW 1.3 mph2.1 kmh 29.59 in1002.0 mb 0.00 in0.0 mm 0.00 in/hr0.0 mm/hr 0.04 in1.0 mm
05:00 AM 50.5°F10.3°C 50.0°F10.0°C 98% 0.2 mph WNW0.3 kmh WNW 1.6 mph2.6 kmh 29.62 in1003.0 mb 0.00 in0.0 mm 0.00 in/hr0.0 mm/hr 0.04 in1.0 mm
05:10 AM 50.5°F10.3°C 50.0°F10.0°C 98% 0.2 mph WSW0.3 kmh WSW 1.6 mph2.6 kmh 29.62 in1003.0 mb 0.00 in0.0 mm 0.00 in/hr0.0 mm/hr 0.04 in1.0 mm
05:20 AM 50.4°F10.2°C 49.8°F9.9°C 98% 0.2 mph SW0.3 kmh SW 1.3 mph2.1 kmh 29.62 in1003.0 mb 0.00 in0.0 mm 0.00 in/hr0.0 mm/hr 0.04 in1.0 mm
05:30 AM 50.2°F10.1°C 49.6°F9.8°C 98% - E16091.8 kmh E 0.9 mph1.4 kmh 29.62 in1003.0 mb 0.00 in0.0 mm 0.00 in/hr0.0 mm/hr 0.04 in1.0 mm
05:40 AM 50.0°F10.0°C 49.5°F9.7°C 98% - E16091.8 kmh E -- 29.62 in1003.0 mb 0.00 in0.0 mm 0.00 in/hr0.0 mm/hr 0.04 in1.0 mm
05:50 AM 49.8°F9.9°C 49.3°F9.6°C 98% - E16091.8 kmh E -- 29.62 in1003.0 mb 0.00 in0.0 mm 0.00 in/hr0.0 mm/hr 0.04 in1.0 mm
06:00 AM 49.6°F9.8°C 49.1°F9.5°C 98% - E16091.8 kmh E -- 29.62 in1003.0 mb 0.00 in0.0 mm 0.00 in/hr0.0 mm/hr 0.04 in1.0 mm
06:10 AM 49.6°F9.8°C 49.1°F9.5°C 98% - SW16091.8 kmh SW 1.1 mph1.8 kmh 29.62 in1003.0 mb 0.00 in0.0 mm 0.00 in/hr0.0 mm/hr 0.04 in1.0 mm
06:20 AM 49.6°F9.8°C 49.1°F9.5°C 98% 0.4 mph S0.6 kmh S 1.6 mph2.6 kmh 29.62 in1003.0 mb 0.00 in0.0 mm 0.00 in/hr0.0 mm/hr 0.04 in1.0 mm
06:30 AM 49.8°F9.9°C 49.3°F9.6°C 98% - E16091.8 kmh E -- 29.65 in1004.1 mb 0.00 in0.0 mm 0.00 in/hr0.0 mm/hr 0.04 in1.0 mm
06:40 AM 50.4°F10.2°C 49.8°F9.9°C 98% - SSE16091.8 kmh SSE 1.1 mph1.8 kmh 29.65 in1004.1 mb 0.00 in0.0 mm 0.00 in/hr0.0 mm/hr 0.04 in1.0 mm
06:50 AM 50.9°F10.5°C 50.4°F10.2°C 98% - E16091.8 kmh E -- 29.65 in1004.1 mb 0.00 in0.0 mm 0.00 in/hr0.0 mm/hr 0.04 in1.0 mm
07:00 AM 51.4°F10.8°C 50.9°F10.5°C 98% - E16091.8 kmh E 1.3 mph2.1 kmh 29.65 in1004.1 mb 0.00 in0.0 mm 0.00 in/hr0.0 mm/hr 0.04 in1.0 mm
07:10 AM 52.0°F11.1°C 51.4°F10.8°C 98% 0.4 mph SE0.6 kmh SE 2.0 mph3.2 kmh 29.65 in1004.1 mb 0.00 in0.0 mm 0.00 in/hr0.0 mm/hr 0.04 in1.0 mm
07:20 AM 52.3°F11.3°C 51.8°F11.0°C 98% 0.9 mph E1.4 kmh E 2.7 mph4.3 kmh 29.65 in1004.1 mb 0.00 in0.0 mm 0.00 in/hr0.0 mm/hr 0.04 in1.0 mm
07:30 AM 52.5°F11.4°C 52.0°F11.1°C 98% 1.1 mph E1.8 kmh E 2.9 mph4.7 kmh 29.68 in1005.1 mb 0.00 in0.0 mm 0.00 in/hr0.0 mm/hr 0.04 in1.0 mm
07:40 AM 52.7°F11.5°C 52.2°F11.2°C 98% 0.7 mph SSW1.1 kmh SSW 3.1 mph5.0 kmh 29.68 in1005.1 mb 0.00 in0.0 mm 0.00 in/hr0.0 mm/hr 0.04 in1.0 mm
07:50 AM 53.1°F11.7°C 52.5°F11.4°C 98% 0.9 mph E1.4 kmh E 2.7 mph4.3 kmh 29.68 in1005.1 mb 0.00 in0.0 mm 0.00 in/hr0.0 mm/hr 0.04 in1.0 mm
08:00 AM 53.4°F11.9°C 52.9°F11.6°C 98% 0.4 mph WSW0.6 kmh WSW 2.0 mph3.2 kmh 29.68 in1005.1 mb 0.00 in0.0 mm 0.00 in/hr0.0 mm/hr 0.04 in1.0 mm
08:10 AM 53.8°F12.1°C 53.2°F11.8°C 98% 1.1 mph N1.8 kmh N 3.1 mph5.0 kmh 29.65 in1004.1 mb 0.00 in0.0 mm 0.00 in/hr0.0 mm/hr 0.04 in1.0 mm
08:20 AM 54.1°F12.3°C 53.6°F12.0°C 98% 1.8 mph SW2.9 kmh SW 3.4 mph5.5 kmh 29.62 in1003.0 mb 0.00 in0.0 mm 0.00 in/hr0.0 mm/hr 0.04 in1.0 mm
08:30 AM 54.5°F12.5°C 54.0°F12.2°C 98% 1.1 mph WNW1.8 kmh WNW 3.6 mph5.8 kmh 29.65 in1004.1 mb 0.00 in0.0 mm 0.00 in/hr0.0 mm/hr 0.04 in1.0 mm
08:40 AM 54.5°F12.5°C 53.6°F12.0°C 97% 0.7 mph SSW1.1 kmh SSW 1.3 mph2.1 kmh 29.66 in1004.4 mb 0.00 in0.0 mm 0.00 in/hr0.0 mm/hr 0.04 in1.0 mm
08:50 AM 54.5°F12.5°C 53.4°F11.9°C 96% 1.8 mph ENE2.9 kmh ENE 3.1 mph5.0 kmh 29.68 in1005.1 mb 0.00 in0.0 mm 0.00 in/hr0.0 mm/hr 0.04 in1.0 mm
09:00 AM 54.3°F12.4°C 53.2°F11.8°C 96% 1.3 mph E2.1 kmh E 2.9 mph4.7 kmh 29.68 in1005.1 mb 0.00 in0.0 mm 0.00 in/hr0.0 mm/hr 0.04 in1.0 mm
09:10 AM 54.3°F12.4°C 53.2°F11.8°C 96% 0.4 mph S0.6 kmh S 2.9 mph4.7 kmh 29.68 in1005.1 mb 0.00 in0.0 mm 0.00 in/hr0.0 mm/hr 0.04 in1.0 mm
09:20 AM 54.5°F12.5°C 53.4°F11.9°C 96% 0.2 mph SE0.3 kmh SE 1.6 mph2.6 kmh 29.68 in1005.1 mb 0.00 in0.0 mm 0.00 in/hr0.0 mm/hr 0.04 in1.0 mm
09:30 AM 54.7°F12.6°C 53.6°F12.0°C 96% 1.1 mph SE1.8 kmh SE 2.7 mph4.3 kmh 29.68 in1005.1 mb 0.00 in0.0 mm 0.00 in/hr0.0 mm/hr 0.04 in1.0 mm
09:40 AM 54.9°F12.7°C 53.8°F12.1°C 96% 1.6 mph SE2.6 kmh SE 4.3 mph6.9 kmh 29.68 in1005.1 mb 0.00 in0.0 mm 0.00 in/hr0.0 mm/hr 0.04 in1.0 mm
09:50 AM 55.6°F13.1°C 54.1°F12.3°C 95% 1.1 mph ESE1.8 kmh ESE 2.9 mph4.7 kmh 29.68 in1005.1 mb 0.00 in0.0 mm 0.00 in/hr0.0 mm/hr 0.04 in1.0 mm
10:00 AM 56.8°F13.8°C 55.2°F12.9°C 94% 0.9 mph S1.4 kmh S 2.2 mph3.5 kmh 29.68 in1005.1 mb 0.00 in0.0 mm 0.00 in/hr0.0 mm/hr 0.04 in1.0 mm
10:10 AM 57.0°F13.9°C 54.5°F12.5°C 91% 1.1 mph S1.8 kmh S 2.7 mph4.3 kmh 29.68 in1005.1 mb 0.00 in0.0 mm 0.00 in/hr0.0 mm/hr 0.04 in1.0 mm
10:20 AM 57.2°F14.0°C 54.3°F12.4°C 90% - SSW16091.8 kmh SSW 0.9 mph1.4 kmh 29.68 in1005.1 mb 0.00 in0.0 mm 0.00 in/hr0.0 mm/hr 0.04 in1.0 mm
10:30 AM 57.6°F14.2°C 54.3°F12.4°C 89% 0.4 mph E0.6 kmh E 2.0 mph3.2 kmh 29.68 in1005.1 mb 0.00 in0.0 mm 0.00 in/hr0.0 mm/hr 0.04 in1.0 mm
10:40 AM 57.7°F14.3°C 54.1°F12.3°C 88% 0.4 mph ESE0.6 kmh ESE 2.2 mph3.5 kmh 29.68 in1005.1 mb 0.00 in0.0 mm 0.00 in/hr0.0 mm/hr 0.04 in1.0 mm
10:50 AM 58.6°F14.8°C 54.9°F12.7°C 87% 0.7 mph SE1.1 kmh SE 2.5 mph4.0 kmh 29.68 in1005.1 mb 0.00 in0.0 mm 0.00 in/hr0.0 mm/hr 0.04 in1.0 mm
11:00 AM 59.0°F15.0°C 54.5°F12.5°C 85% 0.4 mph ENE0.6 kmh ENE 1.3 mph2.1 kmh 29.68 in1005.1 mb 0.00 in0.0 mm 0.00 in/hr0.0 mm/hr 0.04 in1.0 mm
11:11 AM 59.0°F15.0°C 53.8°F12.1°C 83% 0.9 mph NE1.4 kmh NE 2.9 mph4.7 kmh 29.68 in1005.1 mb 0.00 in0.0 mm 0.00 in/hr0.0 mm/hr 0.04 in1.0 mm
11:21 AM 59.0°F15.0°C 53.6°F12.0°C 82% 1.3 mph WNW2.1 kmh WNW 3.6 mph5.8 kmh 29.68 in1005.1 mb 0.00 in0.0 mm 0.00 in/hr0.0 mm/hr 0.04 in1.0 mm
11:31 AM 59.2°F15.1°C 53.4°F11.9°C 81% 2.0 mph NW3.2 kmh NW 4.5 mph7.2 kmh 29.68 in1005.1 mb 0.00 in0.0 mm 0.00 in/hr0.0 mm/hr 0.04 in1.0 mm
11:41 AM 59.4°F15.2°C 53.2°F11.8°C 80% 2.0 mph NNW3.2 kmh NNW 3.8 mph6.1 kmh 29.66 in1004.4 mb 0.00 in0.0 mm 0.00 in/hr0.0 mm/hr 0.04 in1.0 mm
11:51 AM 59.5°F15.3°C 53.1°F11.7°C 79% 2.5 mph WSW4.0 kmh WSW 4.0 mph6.4 kmh 29.65 in1004.1 mb 0.00 in0.0 mm 0.00 in/hr0.0 mm/hr 0.04 in1.0 mm
12:01 PM 59.4°F15.2°C 52.9°F11.6°C 79% 0.9 mph SSW1.4 kmh SSW 1.6 mph2.6 kmh 29.68 in1005.1 mb 0.00 in0.0 mm 0.00 in/hr0.0 mm/hr 0.04 in1.0 mm
12:11 PM 59.2°F15.1°C 53.1°F11.7°C 80% 0.9 mph NW1.4 kmh NW 4.0 mph6.4 kmh 29.68 in1005.1 mb 0.00 in0.0 mm 0.00 in/hr0.0 mm/hr 0.04 in1.0 mm
12:21 PM 59.4°F15.2°C 53.2°F11.8°C 80% 1.3 mph NW2.1 kmh NW 2.7 mph4.3 kmh 29.68 in1005.1 mb 0.00 in0.0 mm 0.00 in/hr0.0 mm/hr 0.04 in1.0 mm
12:31 PM 59.4°F15.2°C 52.9°F11.6°C 79% 1.6 mph WNW2.6 kmh WNW 3.1 mph5.0 kmh 29.68 in1005.1 mb 0.00 in0.0 mm 0.00 in/hr0.0 mm/hr 0.04 in1.0 mm
12:41 PM 59.7°F15.4°C 53.2°F11.8°C 79% 1.6 mph NNW2.6 kmh NNW 4.0 mph6.4 kmh 29.68 in1005.1 mb 0.00 in0.0 mm 0.00 in/hr0.0 mm/hr 0.04 in1.0 mm
12:51 PM 59.7°F15.4°C 52.9°F11.6°C 78% 1.8 mph NNE2.9 kmh NNE 3.1 mph5.0 kmh 29.68 in1005.1 mb 0.00 in0.0 mm 0.00 in/hr0.0 mm/hr 0.04 in1.0 mm
01:01 PM 59.7°F15.4°C 52.9°F11.6°C 78% 1.6 mph NW2.6 kmh NW 4.3 mph6.9 kmh 29.68 in1005.1 mb 0.00 in0.0 mm 0.00 in/hr0.0 mm/hr 0.04 in1.0 mm
01:11 PM 60.1°F15.6°C 53.2°F11.8°C 78% 2.2 mph NNW3.5 kmh NNW 3.6 mph5.8 kmh 29.66 in1004.4 mb 0.00 in0.0 mm 0.00 in/hr0.0 mm/hr 0.04 in1.0 mm
01:21 PM 60.8°F16.0°C 53.6°F12.0°C 77% 1.6 mph N2.6 kmh N 2.9 mph4.7 kmh 29.65 in1004.1 mb 0.00 in0.0 mm 0.00 in/hr0.0 mm/hr 0.04 in1.0 mm
01:31 PM 60.1°F15.6°C 52.5°F11.4°C 76% 1.3 mph W2.1 kmh W 3.6 mph5.8 kmh 29.68 in1005.1 mb 0.00 in0.0 mm 0.00 in/hr0.0 mm/hr 0.04 in1.0 mm
01:41 PM 59.7°F15.4°C 52.5°F11.4°C 77% 1.3 mph W2.1 kmh W 3.1 mph5.0 kmh 29.68 in1005.1 mb 0.00 in0.0 mm 0.00 in/hr0.0 mm/hr 0.04 in1.0 mm
01:51 PM 59.7°F15.4°C 53.2°F11.8°C 79% 0.9 mph N1.4 kmh N 2.5 mph4.0 kmh 29.68 in1005.1 mb 0.00 in0.0 mm 0.00 in/hr0.0 mm/hr 0.04 in1.0 mm
02:01 PM 59.5°F15.3°C 53.4°F11.9°C 80% 0.9 mph NNW1.4 kmh NNW 2.7 mph4.3 kmh 29.68 in1005.1 mb 0.00 in0.0 mm 0.00 in/hr0.0 mm/hr 0.04 in1.0 mm
02:11 PM 59.7°F15.4°C 54.0°F12.2°C 81% 1.3 mph NNW2.1 kmh NNW 4.0 mph6.4 kmh 29.66 in1004.4 mb 0.00 in0.0 mm 0.00 in/hr0.0 mm/hr 0.04 in1.0 mm
02:21 PM 59.9°F15.5°C 54.3°F12.4°C 82% 2.0 mph NW3.2 kmh NW 4.3 mph6.9 kmh 29.65 in1004.1 mb 0.00 in0.0 mm 0.00 in/hr0.0 mm/hr 0.04 in1.0 mm
02:31 PM 59.5°F15.3°C 54.0°F12.2°C 82% 2.5 mph NW4.0 kmh NW 6.3 mph10.1 kmh 29.65 in1004.1 mb 0.00 in0.0 mm 0.00 in/hr0.0 mm/hr 0.04 in1.0 mm
02:41 PM 59.2°F15.1°C 54.0°F12.2°C 83% 2.9 mph NW4.7 kmh NW 5.4 mph8.7 kmh 29.65 in1004.1 mb 0.00 in0.0 mm 0.00 in/hr0.0 mm/hr 0.04 in1.0 mm
02:51 PM 59.5°F15.3°C 54.3°F12.4°C 83% 2.5 mph NNW4.0 kmh NNW 7.2 mph11.6 kmh 29.64 in1003.7 mb 0.00 in0.0 mm 0.00 in/hr0.0 mm/hr 0.04 in1.0 mm
03:01 PM 59.7°F15.4°C 54.5°F12.5°C 83% 1.3 mph SE2.1 kmh SE 3.6 mph5.8 kmh 29.62 in1003.0 mb 0.00 in0.0 mm 0.00 in/hr0.0 mm/hr 0.04 in1.0 mm
03:11 PM 59.7°F15.4°C 54.5°F12.5°C 83% 2.5 mph N4.0 kmh N 6.1 mph9.8 kmh 29.62 in1003.0 mb 0.00 in0.0 mm 0.00 in/hr0.0 mm/hr 0.04 in1.0 mm
03:21 PM 59.2°F15.1°C 54.0°F12.2°C 83% 2.7 mph N4.3 kmh N 6.7 mph10.8 kmh 29.62 in1003.0 mb 0.00 in0.0 mm 0.00 in/hr0.0 mm/hr 0.04 in1.0 mm
03:31 PM 58.6°F14.8°C 54.1°F12.3°C 85% 3.8 mph N6.1 kmh N 7.4 mph11.9 kmh 29.62 in1003.0 mb 0.00 in0.0 mm 0.00 in/hr0.0 mm/hr 0.04 in1.0 mm
03:41 PM 58.5°F14.7°C 54.7°F12.6°C 87% 3.6 mph N5.8 kmh N 4.9 mph7.9 kmh 29.60 in1002.4 mb 0.00 in0.0 mm 0.00 in/hr0.0 mm/hr 0.04 in1.0 mm
03:51 PM 58.3°F14.6°C 55.0°F12.8°C 89% 2.9 mph WNW4.7 kmh WNW 6.3 mph10.1 kmh 29.59 in1002.0 mb 0.00 in0.0 mm 0.00 in/hr0.0 mm/hr 0.04 in1.0 mm
04:01 PM 58.3°F14.6°C 55.4°F13.0°C 90% 3.8 mph NW6.1 kmh NW 5.4 mph8.7 kmh 29.62 in1003.0 mb 0.00 in0.0 mm 0.00 in/hr0.0 mm/hr 0.04 in1.0 mm
04:11 PM 58.3°F14.6°C 55.9°F13.3°C 92% 3.4 mph NW5.5 kmh NW 4.9 mph7.9 kmh 29.58 in1001.7 mb 0.00 in0.0 mm 0.00 in/hr0.0 mm/hr 0.04 in1.0 mm
04:21 PM 58.6°F14.8°C 55.9°F13.3°C 91% 0.2 mph W0.3 kmh W 1.6 mph2.6 kmh 29.57 in1001.4 mb 0.00 in0.0 mm 0.00 in/hr0.0 mm/hr 0.04 in1.0 mm
04:31 PM 59.2°F15.1°C 56.3°F13.5°C 90% 0.7 mph W1.1 kmh W 2.7 mph4.3 kmh 29.59 in1002.0 mb 0.00 in0.0 mm 0.00 in/hr0.0 mm/hr 0.04 in1.0 mm
04:41 PM 59.4°F15.2°C 56.5°F13.6°C 90% 0.9 mph E1.4 kmh E 3.4 mph5.5 kmh 29.59 in1002.0 mb 0.00 in0.0 mm 0.00 in/hr0.0 mm/hr 0.04 in1.0 mm
04:51 PM 59.7°F15.4°C 56.8°F13.8°C 90% 1.6 mph E2.6 kmh E 4.3 mph6.9 kmh 29.58 in1001.7 mb 0.00 in0.0 mm 0.00 in/hr0.0 mm/hr 0.04 in1.0 mm
05:01 PM 59.7°F15.4°C 56.8°F13.8°C 90% 2.9 mph ENE4.7 kmh ENE 6.3 mph10.1 kmh 29.53 in1000.0 mb 0.00 in0.0 mm 0.00 in/hr0.0 mm/hr 0.04 in1.0 mm
05:11 PM 59.7°F15.4°C 56.8°F13.8°C 90% 2.5 mph NE4.0 kmh NE 6.5 mph10.5 kmh 29.51 in999.3 mb 0.00 in0.0 mm 0.00 in/hr0.0 mm/hr 0.04 in1.0 mm
05:21 PM 60.1°F15.6°C 57.2°F14.0°C 90% 1.8 mph E2.9 kmh E 3.8 mph6.1 kmh 29.50 in999.0 mb 0.00 in0.0 mm 0.00 in/hr0.0 mm/hr 0.04 in1.0 mm
05:31 PM 60.3°F15.7°C 56.7°F13.7°C 88% 2.7 mph NNE4.3 kmh NNE 6.1 mph9.8 kmh 29.50 in999.0 mb 0.00 in0.0 mm 0.00 in/hr0.0 mm/hr 0.04 in1.0 mm
05:41 PM 60.6°F15.9°C 56.7°F13.7°C 87% 2.2 mph NW3.5 kmh NW 3.8 mph6.1 kmh 29.50 in999.0 mb 0.00 in0.0 mm 0.00 in/hr0.0 mm/hr 0.04 in1.0 mm
05:51 PM 60.6°F15.9°C 56.7°F13.7°C 87% 1.1 mph NW1.8 kmh NW 2.7 mph4.3 kmh 29.49 in998.6 mb 0.00 in0.0 mm 0.00 in/hr0.0 mm/hr 0.04 in1.0 mm
06:01 PM 60.4°F15.8°C 56.5°F13.6°C 87% 0.9 mph NW1.4 kmh NW 2.9 mph4.7 kmh 29.47 in998.0 mb 0.00 in0.0 mm 0.00 in/hr0.0 mm/hr 0.04 in1.0 mm
06:11 PM 60.4°F15.8°C 56.5°F13.6°C 87% 1.3 mph NE2.1 kmh NE 2.2 mph3.5 kmh 29.47 in998.0 mb 0.00 in0.0 mm 0.00 in/hr0.0 mm/hr 0.04 in1.0 mm
06:21 PM 60.4°F15.8°C 56.5°F13.6°C 87% 1.8 mph NNE2.9 kmh NNE 4.3 mph6.9 kmh 29.48 in998.3 mb 0.00 in0.0 mm 0.00 in/hr0.0 mm/hr 0.04 in1.0 mm
06:31 PM 60.6°F15.9°C 56.7°F13.7°C 87% 1.8 mph N2.9 kmh N 4.7 mph7.6 kmh 29.53 in1000.0 mb 0.00 in0.0 mm 0.00 in/hr0.0 mm/hr 0.04 in1.0 mm
06:41 PM 61.0°F16.1°C 56.5°F13.6°C 85% 2.5 mph NW4.0 kmh NW 4.9 mph7.9 kmh 29.49 in998.6 mb 0.00 in0.0 mm 0.00 in/hr0.0 mm/hr 0.04 in1.0 mm
06:51 PM 61.3°F16.3°C 56.1°F13.4°C 83% 3.8 mph NW6.1 kmh NW 7.6 mph12.2 kmh 29.47 in998.0 mb 0.00 in0.0 mm 0.00 in/hr0.0 mm/hr 0.04 in1.0 mm
07:01 PM 61.5°F16.4°C 55.9°F13.3°C 82% 2.9 mph NNW4.7 kmh NNW 6.1 mph9.8 kmh 29.47 in998.0 mb 0.00 in0.0 mm 0.00 in/hr0.0 mm/hr 0.04 in1.0 mm
07:11 PM 61.2°F16.2°C 55.6°F13.1°C 82% 2.7 mph NNW4.3 kmh NNW 6.1 mph9.8 kmh 29.45 in997.3 mb 0.00 in0.0 mm 0.00 in/hr0.0 mm/hr 0.04 in1.0 mm
07:21 PM 60.8°F16.0°C 55.6°F13.1°C 83% 2.2 mph N3.5 kmh N 6.5 mph10.5 kmh 29.44 in997.0 mb 0.00 in0.0 mm 0.00 in/hr0.0 mm/hr 0.04 in1.0 mm
07:31 PM 60.4°F15.8°C 55.6°F13.1°C 84% 2.0 mph NW3.2 kmh NW 5.6 mph9.0 kmh 29.41 in995.9 mb 0.00 in0.0 mm 0.00 in/hr0.0 mm/hr 0.04 in1.0 mm
07:41 PM 60.6°F15.9°C 56.5°F13.6°C 86% 2.5 mph NW4.0 kmh NW 4.9 mph7.9 kmh 29.41 in995.9 mb 0.00 in0.0 mm 0.00 in/hr0.0 mm/hr 0.04 in1.0 mm
07:51 PM 60.4°F15.8°C 56.3°F13.5°C 86% 0.9 mph NW1.4 kmh NW 2.2 mph3.5 kmh 29.42 in996.3 mb 0.00 in0.0 mm 0.00 in/hr0.0 mm/hr 0.04 in1.0 mm
08:01 PM 60.1°F15.6°C 55.6°F13.1°C 85% 1.8 mph WSW2.9 kmh WSW 4.0 mph6.4 kmh 29.44 in997.0 mb 0.00 in0.0 mm 0.00 in/hr0.0 mm/hr 0.04 in1.0 mm
08:11 PM 60.4°F15.8°C 55.2°F12.9°C 83% 2.7 mph WNW4.3 kmh WNW 6.3 mph10.1 kmh 29.42 in996.3 mb 0.00 in0.0 mm 0.00 in/hr0.0 mm/hr 0.04 in1.0 mm
08:21 PM 60.3°F15.7°C 55.0°F12.8°C 83% 3.6 mph W5.8 kmh W 7.2 mph11.6 kmh 29.41 in995.9 mb 0.00 in0.0 mm 0.00 in/hr0.0 mm/hr 0.04 in1.0 mm
08:31 PM 60.6°F15.9°C 54.7°F12.6°C 81% 3.1 mph W5.0 kmh W 6.5 mph10.5 kmh 29.41 in995.9 mb 0.00 in0.0 mm 0.00 in/hr0.0 mm/hr 0.04 in1.0 mm
08:41 PM 59.9°F15.5°C 54.3°F12.4°C 82% 1.6 mph S2.6 kmh S 4.3 mph6.9 kmh 29.41 in995.9 mb 0.00 in0.0 mm 0.00 in/hr0.0 mm/hr 0.04 in1.0 mm
08:51 PM 59.0°F15.0°C 54.1°F12.3°C 84% 0.7 mph SW1.1 kmh SW 2.7 mph4.3 kmh 29.41 in995.9 mb 0.00 in0.0 mm 0.00 in/hr0.0 mm/hr 0.04 in1.0 mm
09:01 PM 58.5°F14.7°C 54.3°F12.4°C 86% 0.2 mph ENE0.3 kmh ENE 1.3 mph2.1 kmh 29.41 in995.9 mb 0.00 in0.0 mm 0.00 in/hr0.0 mm/hr 0.04 in1.0 mm
09:11 PM 58.1°F14.5°C 54.3°F12.4°C 87% 0.4 mph SSE0.6 kmh SSE 2.2 mph3.5 kmh 29.41 in995.9 mb 0.00 in0.0 mm 0.00 in/hr0.0 mm/hr 0.04 in1.0 mm
09:21 PM 57.9°F14.4°C 54.7°F12.6°C 89% 0.4 mph NW0.6 kmh NW 2.0 mph3.2 kmh 29.41 in995.9 mb 0.00 in0.0 mm 0.00 in/hr0.0 mm/hr 0.04 in1.0 mm
09:31 PM 57.6°F14.2°C 54.7°F12.6°C 90% 0.2 mph NNE0.3 kmh NNE 1.1 mph1.8 kmh 29.41 in995.9 mb 0.00 in0.0 mm 0.00 in/hr0.0 mm/hr 0.04 in1.0 mm
09:41 PM 57.4°F14.1°C 54.9°F12.7°C 91% 0.2 mph SE0.3 kmh SE 2.7 mph4.3 kmh 29.41 in995.9 mb 0.00 in0.0 mm 0.00 in/hr0.0 mm/hr 0.04 in1.0 mm
09:51 PM 57.4°F14.1°C 55.0°F12.8°C 92% 0.7 mph SSE1.1 kmh SSE 2.2 mph3.5 kmh 29.41 in995.9 mb 0.00 in0.0 mm 0.00 in/hr0.0 mm/hr 0.04 in1.0 mm
10:01 PM 57.2°F14.0°C 54.9°F12.7°C 92% 0.4 mph E0.6 kmh E 2.7 mph4.3 kmh 29.41 in995.9 mb 0.00 in0.0 mm 0.00 in/hr0.0 mm/hr 0.04 in1.0 mm
10:11 PM 57.0°F13.9°C 55.0°F12.8°C 93% 0.2 mph SE0.3 kmh SE 1.3 mph2.1 kmh 29.41 in995.9 mb 0.00 in0.0 mm 0.00 in/hr0.0 mm/hr 0.04 in1.0 mm
10:21 PM 57.9°F14.4°C 55.2°F12.9°C 91% 1.6 mph S2.6 kmh S 8.1 mph13.0 kmh 29.41 in995.9 mb 0.00 in0.0 mm 0.00 in/hr0.0 mm/hr 0.04 in1.0 mm
10:31 PM 59.7°F15.4°C 54.1°F12.3°C 82% 1.6 mph SSE2.6 kmh SSE 3.8 mph6.1 kmh 29.41 in995.9 mb 0.00 in0.0 mm 0.00 in/hr0.0 mm/hr 0.04 in1.0 mm
10:41 PM 62.2°F16.8°C 52.3°F11.3°C 70% 1.8 mph SE2.9 kmh SE 4.7 mph7.6 kmh 29.39 in995.3 mb 0.00 in0.0 mm 0.00 in/hr0.0 mm/hr 0.04 in1.0 mm
10:51 PM 64.0°F17.8°C 51.6°F10.9°C 64% 1.6 mph S2.6 kmh S 6.3 mph10.1 kmh 29.39 in995.3 mb 0.00 in0.0 mm 0.00 in/hr0.0 mm/hr 0.04 in1.0 mm
11:01 PM 63.7°F17.6°C 51.6°F10.9°C 65% 0.9 mph ESE1.4 kmh ESE 5.8 mph9.3 kmh 29.44 in997.0 mb 0.00 in0.0 mm 0.00 in/hr0.0 mm/hr 0.00 in0.0 mm
11:11 PM 62.4°F16.9°C 51.3°F10.7°C 67% 1.6 mph SSE2.6 kmh SSE 4.3 mph6.9 kmh 29.46 in997.6 mb 0.00 in0.0 mm 0.00 in/hr0.0 mm/hr 0.00 in0.0 mm
11:21 PM 61.7°F16.5°C 51.4°F10.8°C 69% 0.4 mph SE0.6 kmh SE 2.5 mph4.0 kmh 29.47 in998.0 mb 0.00 in0.0 mm 0.00 in/hr0.0 mm/hr 0.00 in0.0 mm
11:31 PM 60.8°F16.0°C 51.8°F11.0°C 72% 0.2 mph E0.3 kmh E 2.7 mph4.3 kmh 29.47 in998.0 mb 0.00 in0.0 mm 0.00 in/hr0.0 mm/hr 0.00 in0.0 mm
11:41 PM 60.4°F15.8°C 51.8°F11.0°C 73% 3.4 mph S5.5 kmh S 13.2 mph21.2 kmh 29.45 in997.3 mb 0.00 in0.0 mm 0.00 in/hr0.0 mm/hr 0.00 in0.0 mm
11:51 PM 62.4°F16.9°C 51.8°F11.0°C 68% 0.9 mph SW1.4 kmh SW 3.8 mph6.1 kmh 29.43 in996.6 mb 0.00 in0.0 mm 0.00 in/hr0.0 mm/hr 0.00 in0.0 mm